Terminal Aerodrome Forecast
Issued by NWS

Home | Current Version | Previous Version | Text Only | Print | Product List | Glossary Off
Versions: 1 2 3 4 5 6 7 8 9 10 11 12 13 14 15 16 17

026
FTUS42 KMHX 150908 AAA
TAFPGV
TAF AMD
KPGV 150908Z 1509/1606 VRB04KT P6SM SCT030 BKN100
     FM151200 36005KT P6SM BKN030
     FM151700 03007KT P6SM SCT020 BKN040
     FM160000 05004KT P6SM SCT020 BKN050
      AMD LTD TO CLD VIS AND WIND=

USA.gov is the U.S. government's official web portal to all federal, state and local government web resources and services.